createdAt,value
2022-11-08T00:00:44.639Z,8.30
2022-11-08T00:03:12.339Z,8.30
2022-11-08T00:05:58.422Z,8.40
2022-11-08T00:08:44.224Z,8.40
2022-11-08T00:11:30.418Z,8.40
2022-11-08T00:13:57.826Z,8.40
2022-11-08T00:16:26.071Z,8.60
2022-11-08T00:18:53.587Z,8.40
2022-11-08T00:21:21.305Z,8.60
2022-11-08T00:23:48.768Z,8.50
2022-11-08T00:26:16.336Z,8.50
2022-11-08T00:28:43.867Z,8.60
2022-11-08T00:31:11.381Z,8.60
2022-11-08T00:33:38.914Z,8.60
2022-11-08T00:36:06.696Z,8.60
2022-11-08T00:38:34.149Z,8.60
2022-11-08T00:41:01.781Z,8.60
2022-11-08T00:43:29.378Z,8.60
2022-11-08T00:45:56.797Z,8.60
2022-11-08T00:48:24.322Z,8.70
2022-11-08T00:50:51.843Z,8.60
2022-11-08T00:53:19.604Z,8.70
2022-11-08T00:55:47.329Z,8.60
2022-11-08T00:58:15.182Z,8.70
2022-11-08T01:00:42.961Z,8.70
2022-11-08T01:03:19.713Z,8.70
2022-11-08T01:05:51.607Z,8.60
2022-11-08T01:08:20.900Z,8.70
2022-11-08T01:10:53.360Z,8.70
2022-11-08T01:13:21.424Z,8.80
2022-11-08T01:15:49.187Z,8.80
2022-11-08T01:18:18.115Z,8.70
2022-11-08T01:20:47.897Z,8.80
2022-11-08T01:23:16.435Z,8.70
2022-11-08T01:25:45.656Z,8.80
2022-11-08T01:28:13.904Z,8.80
2022-11-08T01:30:43.082Z,8.70
2022-11-08T01:33:11.561Z,8.80
2022-11-08T01:35:39.444Z,8.80
2022-11-08T01:38:07.661Z,8.70
2022-11-08T01:40:35.700Z,8.80
2022-11-08T01:43:27.909Z,8.80
2022-11-08T01:46:10.603Z,8.80
2022-11-08T01:48:42.789Z,8.80
2022-11-08T01:51:13.106Z,8.80
2022-11-08T01:53:40.855Z,8.80
2022-11-08T01:56:11.020Z,8.90
2022-11-08T01:58:40.144Z,8.80
2022-11-08T02:01:07.713Z,8.90
2022-11-08T02:03:36.115Z,8.80
2022-11-08T02:06:04.943Z,8.90
2022-11-08T02:08:37.936Z,8.90
2022-11-08T02:11:07.100Z,8.90
2022-11-08T02:13:36.772Z,8.80
2022-11-08T02:16:12.824Z,8.80
2022-11-08T02:18:42.051Z,8.80
2022-11-08T02:21:17.959Z,8.80
2022-11-08T02:23:49.210Z,8.80
2022-11-08T02:26:19.270Z,8.80
2022-11-08T02:28:48.432Z,8.80
2022-11-08T02:31:18.529Z,8.80
2022-11-08T02:33:46.930Z,8.90
2022-11-08T02:36:21.875Z,8.80
2022-11-08T02:38:55.202Z,8.80
2022-11-08T02:41:22.657Z,8.70
2022-11-08T02:43:50.072Z,8.80
2022-11-08T02:46:17.753Z,8.80
2022-11-08T02:48:46.507Z,8.80
2022-11-08T02:51:14.062Z,8.80
2022-11-08T02:53:41.643Z,8.80
2022-11-08T02:56:09.145Z,8.80
2022-11-08T02:58:36.722Z,8.80
2022-11-08T03:01:04.389Z,8.80
2022-11-08T03:03:31.813Z,8.80
2022-11-08T03:05:59.465Z,8.70
2022-11-08T03:08:26.979Z,8.70
2022-11-08T03:10:54.427Z,8.50
2022-11-08T03:13:21.945Z,8.70
2022-11-08T03:15:49.408Z,8.70
2022-11-08T03:18:17.109Z,8.70
2022-11-08T03:20:44.923Z,8.70
2022-11-08T03:23:12.364Z,8.80
2022-11-08T03:25:39.807Z,8.80
2022-11-08T03:28:09.255Z,8.90
2022-11-08T03:30:37.568Z,8.90
2022-11-08T03:33:05.727Z,8.90
2022-11-08T03:35:33.225Z,8.90
2022-11-08T03:38:00.749Z,8.90
2022-11-08T03:40:28.539Z,9.00
2022-11-08T03:42:58.963Z,8.90
2022-11-08T03:45:26.587Z,8.90
2022-11-08T03:47:54.136Z,9.00
2022-11-08T03:50:21.709Z,8.90
2022-11-08T03:52:51.813Z,9.10
2022-11-08T03:55:21.408Z,9.00
2022-11-08T03:57:50.431Z,9.10
2022-11-08T04:00:21.176Z,9.00
2022-11-08T04:02:49.086Z,9.00
2022-11-08T04:05:17.850Z,9.00
2022-11-08T04:07:45.707Z,9.10
2022-11-08T04:10:14.131Z,9.00
2022-11-08T04:13:01.739Z,9.00
2022-11-08T04:15:30.937Z,9.10
2022-11-08T04:18:18.381Z,9.10
2022-11-08T04:21:07.142Z,9.10
2022-11-08T04:23:36.564Z,9.10
2022-11-08T04:26:07.318Z,9.10
2022-11-08T04:28:37.548Z,9.10
2022-11-08T04:31:08.242Z,9.10
2022-11-08T04:33:36.404Z,9.10
2022-11-08T04:36:06.967Z,9.10
2022-11-08T04:38:35.250Z,9.10
2022-11-08T04:41:14.643Z,9.20
2022-11-08T04:43:42.936Z,9.10
2022-11-08T04:46:16.316Z,9.10
2022-11-08T04:48:44.623Z,9.20
2022-11-08T04:51:14.632Z,9.10
2022-11-08T04:53:42.298Z,9.10
2022-11-08T04:56:20.813Z,9.00
2022-11-08T04:58:53.890Z,9.00
2022-11-08T05:01:27.747Z,9.00
2022-11-08T05:03:56.064Z,9.00
2022-11-08T05:06:29.575Z,9.00
2022-11-08T05:08:58.214Z,9.00
2022-11-08T05:11:28.042Z,9.00
2022-11-08T05:13:55.957Z,9.00
2022-11-08T05:16:25.846Z,9.00
2022-11-08T05:18:54.163Z,9.00
2022-11-08T05:21:41.569Z,8.90
2022-11-08T05:24:12.618Z,9.00
2022-11-08T05:26:43.040Z,9.00
2022-11-08T05:29:11.598Z,8.90
2022-11-08T05:31:39.878Z,9.00
2022-11-08T05:34:08.055Z,9.10
2022-11-08T05:36:35.925Z,9.00
2022-11-08T05:39:03.567Z,9.10
2022-11-08T05:41:31.229Z,9.10
2022-11-08T05:43:58.763Z,9.00
2022-11-08T05:46:26.484Z,9.20
2022-11-08T05:49:01.722Z,9.20
2022-11-08T05:51:31.078Z,9.20
2022-11-08T05:53:58.563Z,9.30
2022-11-08T05:56:26.272Z,9.30
2022-11-08T05:59:00.969Z,9.20
2022-11-08T06:01:30.532Z,9.20
2022-11-08T06:03:58.318Z,9.30
2022-11-08T06:06:26.121Z,9.30
2022-11-08T06:11:41.463Z,9.40
2022-11-08T06:14:08.858Z,9.40
2022-11-08T06:16:36.432Z,9.50
2022-11-08T06:19:04.039Z,9.50
2022-11-08T06:21:31.478Z,9.60
2022-11-08T06:23:58.923Z,9.50
2022-11-08T06:26:26.422Z,9.50
2022-11-08T06:28:53.858Z,9.60
2022-11-08T06:31:21.481Z,9.60
2022-11-08T06:33:48.879Z,9.60
2022-11-08T06:36:16.519Z,9.60
2022-11-08T06:38:44.163Z,9.60
2022-11-08T06:41:19.365Z,9.60
2022-11-08T06:43:46.878Z,9.70
2022-11-08T06:46:14.322Z,9.80
2022-11-08T06:48:42.284Z,9.80
2022-11-08T06:51:09.733Z,9.70
2022-11-08T06:53:37.281Z,9.80
2022-11-08T06:56:04.963Z,9.90
2022-11-08T06:58:32.609Z,9.90
2022-11-08T07:01:07.160Z,9.90
2022-11-08T07:03:35.082Z,9.90
2022-11-08T07:06:04.798Z,9.90
2022-11-08T07:08:33.438Z,9.90
2022-11-08T07:11:01.063Z,9.90
2022-11-08T07:13:28.683Z,9.90
2022-11-08T07:15:59.494Z,10.00
2022-11-08T07:18:27.446Z,10.10
2022-11-08T07:20:59.485Z,10.10
2022-11-08T07:23:27.320Z,10.10
2022-11-08T07:25:54.800Z,10.10
2022-11-08T07:28:23.492Z,10.10
2022-11-08T07:30:50.971Z,10.00
2022-11-08T07:33:18.886Z,10.10
2022-11-08T07:35:48.014Z,10.20
2022-11-08T07:38:15.725Z,10.20
2022-11-08T07:40:43.482Z,10.30
2022-11-08T07:43:12.631Z,10.30
2022-11-08T07:45:42.284Z,10.30
2022-11-08T07:48:13.074Z,10.40
2022-11-08T07:50:43.185Z,10.50
2022-11-08T07:53:11.096Z,10.50
2022-11-08T07:55:40.369Z,10.50
2022-11-08T07:58:10.343Z,10.60
2022-11-08T08:00:40.363Z,10.60
2022-11-08T08:03:10.952Z,10.60
2022-11-08T08:05:44.050Z,10.60
2022-11-08T08:08:13.768Z,10.60
2022-11-08T08:10:41.675Z,10.80
2022-11-08T08:13:09.718Z,10.70
2022-11-08T08:15:37.519Z,10.70
2022-11-08T08:18:06.522Z,10.70
2022-11-08T08:20:34.932Z,10.70
2022-11-08T08:23:02.579Z,10.70
2022-11-08T08:25:31.303Z,10.80
2022-11-08T08:28:01.363Z,10.70
2022-11-08T08:30:31.189Z,10.80
2022-11-08T08:33:26.759Z,10.80
2022-11-08T08:35:54.216Z,10.80
2022-11-08T08:38:21.845Z,10.90
2022-11-08T08:40:49.318Z,10.90
2022-11-08T08:43:17.130Z,11.00
2022-11-08T08:45:45.239Z,11.00
2022-11-08T08:48:12.800Z,11.10
2022-11-08T08:50:40.244Z,11.10
2022-11-08T08:53:07.918Z,11.30
2022-11-08T08:55:38.001Z,11.30
2022-11-08T08:58:06.208Z,11.30
2022-11-08T09:03:21.671Z,11.20
2022-11-08T09:05:49.520Z,11.30
2022-11-08T09:08:17.007Z,11.20
2022-11-08T09:10:44.479Z,11.30
2022-11-08T09:13:11.964Z,11.40
2022-11-08T09:15:39.675Z,11.40
2022-11-08T09:18:07.450Z,11.50
2022-11-08T09:20:35.054Z,11.30
2022-11-08T09:23:03.746Z,11.40
2022-11-08T09:25:31.963Z,11.40
2022-11-08T09:27:59.440Z,11.50
2022-11-08T09:30:27.039Z,11.60
2022-11-08T09:33:00.772Z,11.60
2022-11-08T09:35:29.862Z,11.90
2022-11-08T09:37:57.843Z,12.10
2022-11-08T09:40:33.100Z,12.10
2022-11-08T09:43:34.279Z,12.20
2022-11-08T09:46:02.163Z,12.30
2022-11-08T09:48:35.644Z,12.40
2022-11-08T09:51:14.020Z,12.30
2022-11-08T09:53:55.719Z,12.30
2022-11-08T09:56:25.841Z,12.30
2022-11-08T09:59:04.527Z,12.40
2022-11-08T10:01:34.372Z,12.30
2022-11-08T10:04:22.620Z,12.30
2022-11-08T10:07:11.854Z,12.00
2022-11-08T10:10:09.244Z,12.20
2022-11-08T10:12:43.791Z,12.10
2022-11-08T10:15:29.683Z,12.00
2022-11-08T10:18:26.120Z,12.00
2022-11-08T10:21:23.081Z,12.10
2022-11-08T10:24:05.146Z,12.20
2022-11-08T10:26:48.160Z,12.10
2022-11-08T10:29:19.940Z,11.90
2022-11-08T10:31:52.584Z,11.80
2022-11-08T10:34:29.627Z,12.10
2022-11-08T10:37:05.618Z,11.90
2022-11-08T10:39:43.464Z,12.00
2022-11-08T10:42:16.093Z,12.00
2022-11-08T10:44:44.646Z,12.10
2022-11-08T10:47:33.767Z,12.00
2022-11-08T10:50:04.393Z,12.20
2022-11-08T10:52:35.271Z,12.20
2022-11-08T10:55:02.903Z,12.30
2022-11-08T10:57:33.220Z,12.30
2022-11-08T11:00:19.411Z,12.30
2022-11-08T11:03:02.435Z,12.40
2022-11-08T11:05:34.771Z,12.50
2022-11-08T11:08:07.958Z,12.50
2022-11-08T11:10:38.081Z,12.50
2022-11-08T11:13:13.699Z,12.70
2022-11-08T11:15:53.854Z,12.60
2022-11-08T11:18:35.490Z,12.70
2022-11-08T11:21:10.097Z,12.70
2022-11-08T11:23:42.314Z,12.80
2022-11-08T11:26:31.402Z,12.90
2022-11-08T11:29:21.721Z,12.90
2022-11-08T11:31:52.321Z,12.90
2022-11-08T11:34:19.825Z,12.80
2022-11-08T11:37:04.590Z,12.90
2022-11-08T11:39:46.190Z,12.70
2022-11-08T11:45:31.810Z,12.70
2022-11-08T11:48:05.472Z,12.60
2022-11-08T11:50:36.549Z,12.50
2022-11-08T11:53:39.099Z,12.50
2022-11-08T11:56:25.591Z,12.60
2022-11-08T11:58:59.151Z,12.40
2022-11-08T12:02:00.663Z,12.30
2022-11-08T12:05:05.550Z,12.20
2022-11-08T12:07:39.114Z,12.10
2022-11-08T12:10:28.234Z,12.00
2022-11-08T12:13:25.503Z,12.00
2022-11-08T12:16:09.373Z,11.90
2022-11-08T12:18:44.565Z,11.50
2022-11-08T12:21:54.414Z,11.60
2022-11-08T12:24:39.339Z,11.60
2022-11-08T12:27:18.193Z,11.50
2022-11-08T12:30:03.896Z,11.40
2022-11-08T12:32:52.917Z,11.40
2022-11-08T12:35:32.801Z,11.40
2022-11-08T12:38:16.068Z,11.40
2022-11-08T12:40:43.899Z,11.50
2022-11-08T12:43:20.563Z,11.50
2022-11-08T12:46:08.234Z,11.50
2022-11-08T12:48:58.431Z,11.50
2022-11-08T12:52:19.680Z,11.30
2022-11-08T12:54:58.634Z,11.30
2022-11-08T12:57:28.633Z,11.40
2022-11-08T13:00:19.109Z,11.30
2022-11-08T13:03:00.194Z,11.30
2022-11-08T13:05:37.914Z,11.20
2022-11-08T13:08:17.039Z,11.30
2022-11-08T13:11:06.123Z,11.20
2022-11-08T13:13:56.151Z,11.20
2022-11-08T13:16:26.389Z,11.20
2022-11-08T13:19:00.071Z,11.10
2022-11-08T13:21:30.684Z,11.20
2022-11-08T13:24:30.428Z,11.20
2022-11-08T13:27:32.914Z,11.10
2022-11-08T13:30:26.130Z,11.20
2022-11-08T13:33:08.163Z,11.10
2022-11-08T13:35:41.710Z,11.20
2022-11-08T13:38:33.509Z,11.20
2022-11-08T13:41:20.270Z,11.20
2022-11-08T13:43:49.554Z,11.30
2022-11-08T13:46:29.802Z,11.30
2022-11-08T13:49:19.850Z,11.30
2022-11-08T13:51:48.074Z,11.30
2022-11-08T13:54:26.673Z,11.30
2022-11-08T13:57:01.553Z,11.30
2022-11-08T13:59:32.642Z,11.30
2022-11-08T14:02:04.668Z,11.40
2022-11-08T14:04:39.189Z,11.50
2022-11-08T14:07:25.854Z,11.40
2022-11-08T14:10:10.965Z,11.40
2022-11-08T14:12:50.153Z,11.40
2022-11-08T14:15:47.529Z,11.40
2022-11-08T14:18:17.749Z,11.30
2022-11-08T14:20:47.420Z,11.40
2022-11-08T14:23:21.253Z,11.30
2022-11-08T14:26:14.874Z,11.50
2022-11-08T14:28:44.710Z,11.30
2022-11-08T14:31:27.782Z,11.30
2022-11-08T14:33:56.201Z,11.40
2022-11-08T14:36:25.878Z,11.30
2022-11-08T14:39:16.753Z,11.20
2022-11-08T14:41:55.320Z,11.30
2022-11-08T14:44:24.028Z,11.30
2022-11-08T14:46:52.349Z,11.20
2022-11-08T14:49:35.473Z,12.10
2022-11-08T14:52:15.567Z,12.20
2022-11-08T14:54:45.641Z,11.90
2022-11-08T14:57:39.400Z,11.90
2022-11-08T15:00:17.859Z,11.70
2022-11-08T15:02:52.569Z,11.90
2022-11-08T15:05:38.274Z,11.80
2022-11-08T15:08:16.394Z,11.80
2022-11-08T15:11:28.744Z,11.80
2022-11-08T15:14:08.819Z,11.60
2022-11-08T15:16:57.465Z,11.60
2022-11-08T15:19:48.056Z,11.60
2022-11-08T15:22:27.860Z,11.60
2022-11-08T15:25:19.703Z,11.70
2022-11-08T15:27:51.205Z,11.50
2022-11-08T15:30:41.856Z,11.60
2022-11-08T15:33:29.153Z,11.70
2022-11-08T15:35:58.315Z,11.60
2022-11-08T15:38:36.633Z,11.60
2022-11-08T15:41:25.440Z,11.60
2022-11-08T15:44:06.159Z,11.60
2022-11-08T15:46:40.790Z,11.60
2022-11-08T15:49:21.237Z,11.50
2022-11-08T15:51:52.921Z,11.50
2022-11-08T15:54:24.348Z,11.60
2022-11-08T15:56:57.233Z,11.50
2022-11-08T15:59:30.352Z,11.50
2022-11-08T16:02:01.858Z,11.40
2022-11-08T16:04:30.676Z,11.50
2022-11-08T16:06:59.275Z,11.50
2022-11-08T16:09:28.516Z,11.50
2022-11-08T16:11:56.480Z,11.50
2022-11-08T16:14:25.434Z,11.40
2022-11-08T16:16:53.033Z,11.40
2022-11-08T16:19:27.778Z,11.40
2022-11-08T16:21:56.734Z,11.50
2022-11-08T16:24:24.162Z,11.40
2022-11-08T16:26:53.403Z,11.50
2022-11-08T16:29:24.035Z,11.40
2022-11-08T16:31:54.604Z,11.50
2022-11-08T16:34:23.025Z,11.50
2022-11-08T16:36:50.793Z,11.40
2022-11-08T16:39:21.837Z,11.40
2022-11-08T16:41:49.733Z,11.60
2022-11-08T16:44:18.051Z,11.50
2022-11-08T16:46:46.543Z,11.60
2022-11-08T16:49:21.956Z,11.60
2022-11-08T16:51:50.402Z,11.40
2022-11-08T16:54:20.467Z,11.50
2022-11-08T16:56:49.015Z,11.50
2022-11-08T16:59:16.579Z,11.40
2022-11-08T17:01:46.304Z,11.40
2022-11-08T17:04:17.401Z,11.40
2022-11-08T17:06:45.551Z,11.40
2022-11-08T17:09:13.206Z,11.30
2022-11-08T17:11:41.191Z,11.40
2022-11-08T17:14:11.358Z,11.40
2022-11-08T17:16:39.600Z,11.40
2022-11-08T17:19:09.116Z,11.40
2022-11-08T17:21:45.470Z,11.30
2022-11-08T17:24:21.134Z,11.40
2022-11-08T17:26:52.791Z,11.30
2022-11-08T17:29:20.322Z,11.40
2022-11-08T17:31:48.834Z,11.40
2022-11-08T17:34:18.641Z,11.30
2022-11-08T17:36:47.414Z,11.40
2022-11-08T17:39:15.845Z,11.30
2022-11-08T17:41:44.485Z,11.20
2022-11-08T17:44:15.642Z,11.30
2022-11-08T17:46:44.050Z,11.30
2022-11-08T17:49:11.790Z,11.20
2022-11-08T17:51:39.684Z,11.20
2022-11-08T17:54:09.170Z,11.30
2022-11-08T17:56:38.687Z,11.20
2022-11-08T17:59:06.987Z,11.20
2022-11-08T18:01:35.735Z,11.20
2022-11-08T18:04:06.800Z,11.20
2022-11-08T18:06:34.320Z,11.20
2022-11-08T18:09:02.374Z,11.10
2022-11-08T18:11:30.469Z,11.20
2022-11-08T18:13:59.163Z,11.20
2022-11-08T18:16:31.361Z,11.10
2022-11-08T18:19:02.348Z,11.10
2022-11-08T18:21:30.110Z,11.10
2022-11-08T18:24:00.149Z,11.10
2022-11-08T18:26:28.423Z,11.10
2022-11-08T18:28:56.976Z,11.10
2022-11-08T18:31:24.840Z,11.20
2022-11-08T18:33:53.150Z,11.10
2022-11-08T18:36:24.450Z,11.10
2022-11-08T18:38:53.580Z,11.10
2022-11-08T18:41:41.941Z,11.10
2022-11-08T18:44:10.917Z,11.00
2022-11-08T18:46:43.013Z,11.10
2022-11-08T18:49:11.805Z,11.00
2022-11-08T18:51:39.677Z,11.00
2022-11-08T18:54:08.014Z,11.10
2022-11-08T18:56:39.266Z,11.10
2022-11-08T18:59:09.901Z,11.10
2022-11-08T19:01:38.643Z,11.00
2022-11-08T19:04:06.130Z,11.10
2022-11-08T19:06:34.226Z,11.10
2022-11-08T19:09:01.760Z,11.10
2022-11-08T19:11:31.225Z,11.10
2022-11-08T19:14:00.231Z,11.20
2022-11-08T19:16:27.831Z,11.10
2022-11-08T19:18:55.754Z,11.10
2022-11-08T19:21:26.195Z,11.20
2022-11-08T19:23:59.033Z,11.20
2022-11-08T19:26:29.265Z,11.10
2022-11-08T19:28:57.755Z,11.10
2022-11-08T19:31:26.567Z,11.20
2022-11-08T19:33:55.510Z,11.20
2022-11-08T19:36:25.905Z,11.20
2022-11-08T19:38:55.613Z,11.20
2022-11-08T19:41:28.369Z,11.10
2022-11-08T19:43:55.807Z,11.10
2022-11-08T19:46:26.461Z,11.10
2022-11-08T19:48:54.195Z,11.10
2022-11-08T19:51:27.089Z,11.20
2022-11-08T19:54:00.111Z,11.20
2022-11-08T19:56:57.735Z,11.30
2022-11-08T19:59:18.285Z,11.20
2022-11-08T20:01:48.487Z,11.10
2022-11-08T20:04:18.941Z,11.20
2022-11-08T20:06:46.910Z,11.20
2022-11-08T20:09:14.469Z,11.20
2022-11-08T20:11:43.070Z,11.30
2022-11-08T20:14:13.309Z,11.10
2022-11-08T20:16:43.175Z,11.20
2022-11-08T20:19:13.749Z,11.20
2022-11-08T20:21:43.355Z,11.30
2022-11-08T20:24:12.240Z,11.20
2022-11-08T20:26:41.714Z,11.30
2022-11-08T20:29:09.787Z,11.30
2022-11-08T20:31:38.745Z,11.30
2022-11-08T20:34:10.956Z,11.30
2022-11-08T20:36:39.321Z,11.40
2022-11-08T20:39:08.139Z,11.30
2022-11-08T20:41:38.043Z,11.30
2022-11-08T20:44:06.951Z,11.40
2022-11-08T20:46:35.683Z,11.30
2022-11-08T20:49:04.549Z,11.40
2022-11-08T20:51:33.076Z,11.40
2022-11-08T20:54:01.754Z,11.30
2022-11-08T20:56:29.795Z,11.50
2022-11-08T20:58:57.580Z,11.50
2022-11-08T21:01:28.456Z,11.40
2022-11-08T21:03:56.962Z,11.40
2022-11-08T21:06:26.395Z,11.40
2022-11-08T21:09:10.904Z,11.50
2022-11-08T21:11:42.239Z,11.50
2022-11-08T21:14:09.830Z,11.50
2022-11-08T21:17:06.610Z,11.60
2022-11-08T21:19:26.435Z,11.50
2022-11-08T21:22:13.749Z,11.40
2022-11-08T21:24:42.274Z,11.40
2022-11-08T21:27:09.793Z,11.50
2022-11-08T21:29:37.329Z,11.50
2022-11-08T21:32:05.588Z,11.50
2022-11-08T21:34:33.111Z,11.50
2022-11-08T21:37:00.624Z,11.60
2022-11-08T21:39:28.234Z,11.50
2022-11-08T21:41:55.667Z,11.60
2022-11-08T21:44:23.109Z,11.40
2022-11-08T21:46:50.589Z,11.50
2022-11-08T21:49:17.948Z,11.60
2022-11-08T21:51:45.312Z,11.50
2022-11-08T21:54:12.914Z,11.50
2022-11-08T21:56:40.353Z,11.50
2022-11-08T21:59:07.834Z,11.50
2022-11-08T22:01:35.412Z,11.50
2022-11-08T22:04:03.104Z,11.50
2022-11-08T22:06:30.681Z,11.50
2022-11-08T22:08:58.158Z,11.40
2022-11-08T22:11:25.695Z,11.60
2022-11-08T22:13:53.229Z,11.50
2022-11-08T22:16:20.713Z,11.60
2022-11-08T22:19:05.097Z,11.50
2022-11-08T22:21:40.272Z,11.50
2022-11-08T22:24:20.675Z,11.40
2022-11-08T22:26:49.709Z,11.50
2022-11-08T22:29:17.476Z,11.40
2022-11-08T22:31:45.037Z,11.50
2022-11-08T22:34:12.972Z,11.50
2022-11-08T22:36:45.428Z,11.60
2022-11-08T22:39:19.127Z,11.60
2022-11-08T22:41:50.044Z,11.50
2022-11-08T22:44:18.410Z,11.60
2022-11-08T22:46:47.643Z,11.50
2022-11-08T22:49:15.760Z,11.50
2022-11-08T22:51:44.322Z,11.50
2022-11-08T22:54:12.373Z,11.50
2022-11-08T22:56:40.847Z,11.50
2022-11-08T22:59:08.679Z,11.60
2022-11-08T23:01:36.472Z,11.50
2022-11-08T23:04:04.161Z,11.50
2022-11-08T23:06:32.303Z,11.50
2022-11-08T23:08:59.686Z,11.50
2022-11-08T23:11:45.524Z,11.60
2022-11-08T23:14:36.711Z,11.40
2022-11-08T23:17:06.371Z,11.50
2022-11-08T23:19:52.107Z,11.60
2022-11-08T23:22:39.660Z,11.50
2022-11-08T23:25:08.390Z,11.50
2022-11-08T23:27:55.565Z,11.40
2022-11-08T23:30:42.344Z,11.50
2022-11-08T23:33:10.807Z,11.40
2022-11-08T23:35:38.751Z,11.50
2022-11-08T23:38:06.494Z,11.50
2022-11-08T23:40:52.301Z,11.60
2022-11-08T23:43:39.696Z,11.50
2022-11-08T23:46:12.914Z,11.50
2022-11-08T23:48:41.600Z,11.50
2022-11-08T23:51:09.175Z,11.40
2022-11-08T23:53:37.941Z,11.40
2022-11-08T23:56:06.195Z,11.50
2022-11-08T23:58:34.115Z,11.50
